sensor_id;sensor_type;location;lat;lon;timestamp;pressure;altitude;pressure_sealevel;temperature;humidity
4858;BME280;58975;51.978;8.472;2022-07-23T00:04:38;100560.28;;;13.73;100.00
4858;BME280;58975;51.978;8.472;2022-07-23T00:09:34;100554.66;;;13.76;100.00
4858;BME280;58975;51.978;8.472;2022-07-23T00:14:31;100550.59;;;13.82;100.00
4858;BME280;58975;51.978;8.472;2022-07-23T00:19:27;100526.06;;;13.86;100.00
4858;BME280;58975;51.978;8.472;2022-07-23T00:24:25;100543.28;;;13.84;100.00
4858;BME280;58975;51.978;8.472;2022-07-23T00:29:21;100548.19;;;13.88;100.00
4858;BME280;58975;51.978;8.472;2022-07-23T00:34:18;100555.41;;;13.88;100.00
4858;BME280;58975;51.978;8.472;2022-07-23T00:39:14;100554.94;;;14.11;100.00
4858;BME280;58975;51.978;8.472;2022-07-23T00:44:22;100553.25;;;14.01;100.00
4858;BME280;58975;51.978;8.472;2022-07-23T00:49:20;100574.38;;;14.04;100.00
4858;BME280;58975;51.978;8.472;2022-07-23T00:54:18;100571.84;;;14.21;100.00
4858;BME280;58975;51.978;8.472;2022-07-23T00:59:14;100566.91;;;14.17;100.00
4858;BME280;58975;51.978;8.472;2022-07-23T01:04:11;100566.09;;;14.07;100.00
4858;BME280;58975;51.978;8.472;2022-07-23T01:09:07;100563.25;;;14.08;100.00
4858;BME280;58975;51.978;8.472;2022-07-23T01:14:11;100556.38;;;14.06;100.00
4858;BME280;58975;51.978;8.472;2022-07-23T01:19:08;100551.00;;;14.06;100.00
4858;BME280;58975;51.978;8.472;2022-07-23T01:24:05;100546.91;;;14.21;100.00
4858;BME280;58975;51.978;8.472;2022-07-23T01:29:02;100546.06;;;14.30;100.00
4858;BME280;58975;51.978;8.472;2022-07-23T01:33:59;100542.81;;;14.36;100.00
4858;BME280;58975;51.978;8.472;2022-07-23T01:38:56;100519.69;;;14.35;100.00
4858;BME280;58975;51.978;8.472;2022-07-23T01:43:53;100515.19;;;14.16;100.00
4858;BME280;58975;51.978;8.472;2022-07-23T01:48:50;100487.97;;;14.21;100.00
4858;BME280;58975;51.978;8.472;2022-07-23T01:53:46;100456.81;;;14.20;100.00
4858;BME280;58975;51.978;8.472;2022-07-23T01:58:42;100475.91;;;13.98;100.00
4858;BME280;58975;51.978;8.472;2022-07-23T02:03:39;100480.53;;;13.96;100.00
4858;BME280;58975;51.978;8.472;2022-07-23T02:08:35;100487.63;;;13.87;100.00
4858;BME280;58975;51.978;8.472;2022-07-23T02:13:32;100489.56;;;13.95;100.00
4858;BME280;58975;51.978;8.472;2022-07-23T02:18:29;100496.59;;;13.96;100.00
4858;BME280;58975;51.978;8.472;2022-07-23T02:23:26;100492.38;;;14.03;100.00
4858;BME280;58975;51.978;8.472;2022-07-23T02:28:22;100504.78;;;13.94;100.00
4858;BME280;58975;51.978;8.472;2022-07-23T02:33:18;100519.75;;;13.87;100.00
4858;BME280;58975;51.978;8.472;2022-07-23T02:38:15;100513.22;;;13.80;100.00
4858;BME280;58975;51.978;8.472;2022-07-23T02:43:11;100511.81;;;13.76;100.00
4858;BME280;58975;51.978;8.472;2022-07-23T02:48:07;100530.56;;;13.66;100.00
4858;BME280;58975;51.978;8.472;2022-07-23T02:53:24;100541.69;;;13.62;100.00
4858;BME280;58975;51.978;8.472;2022-07-23T02:58:20;100540.56;;;13.55;100.00
4858;BME280;58975;51.978;8.472;2022-07-23T03:03:17;100547.31;;;13.49;100.00
4858;BME280;58975;51.978;8.472;2022-07-23T03:08:14;100543.22;;;13.45;100.00
4858;BME280;58975;51.978;8.472;2022-07-23T03:13:10;100547.63;;;13.56;100.00
4858;BME280;58975;51.978;8.472;2022-07-23T03:18:07;100554.09;;;13.63;100.00
4858;BME280;58975;51.978;8.472;2022-07-23T03:23:03;100554.91;;;13.54;100.00
4858;BME280;58975;51.978;8.472;2022-07-23T03:28:00;100558.53;;;13.24;100.00
4858;BME280;58975;51.978;8.472;2022-07-23T03:32:56;100554.03;;;13.24;100.00
4858;BME280;58975;51.978;8.472;2022-07-23T03:37:53;100557.97;;;13.20;100.00
4858;BME280;58975;51.978;8.472;2022-07-23T03:42:49;100558.38;;;13.25;100.00
4858;BME280;58975;51.978;8.472;2022-07-23T03:47:46;100557.91;;;13.11;100.00
4858;BME280;58975;51.978;8.472;2022-07-23T03:52:42;100552.50;;;13.01;100.00
4858;BME280;58975;51.978;8.472;2022-07-23T03:57:39;100553.03;;;12.95;100.00
4858;BME280;58975;51.978;8.472;2022-07-23T04:02:36;100547.41;;;12.98;100.00
4858;BME280;58975;51.978;8.472;2022-07-23T04:07:33;100551.09;;;12.97;100.00
4858;BME280;58975;51.978;8.472;2022-07-23T04:12:30;100555.69;;;12.86;100.00
4858;BME280;58975;51.978;8.472;2022-07-23T04:17:26;100554.66;;;12.77;100.00
4858;BME280;58975;51.978;8.472;2022-07-23T04:22:22;100558.25;;;12.66;100.00
4858;BME280;58975;51.978;8.472;2022-07-23T04:27:19;100566.00;;;12.69;100.00
4858;BME280;58975;51.978;8.472;2022-07-23T04:32:15;100557.81;;;12.92;100.00
4858;BME280;58975;51.978;8.472;2022-07-23T04:37:12;100557.13;;;12.99;100.00
4858;BME280;58975;51.978;8.472;2022-07-23T04:42:08;100555.97;;;13.13;100.00
4858;BME280;58975;51.978;8.472;2022-07-23T04:47:04;100565.25;;;13.18;100.00
4858;BME280;58975;51.978;8.472;2022-07-23T04:52:02;100559.94;;;12.98;100.00
4858;BME280;58975;51.978;8.472;2022-07-23T04:56:58;100568.59;;;13.11;100.00
4858;BME280;58975;51.978;8.472;2022-07-23T05:01:55;100570.97;;;13.44;100.00
4858;BME280;58975;51.978;8.472;2022-07-23T05:06:51;100578.34;;;13.71;100.00
4858;BME280;58975;51.978;8.472;2022-07-23T05:11:48;100571.84;;;13.73;100.00
4858;BME280;58975;51.978;8.472;2022-07-23T05:16:44;100573.13;;;14.17;100.00
4858;BME280;58975;51.978;8.472;2022-07-23T05:21:40;100558.88;;;14.46;100.00
4858;BME280;58975;51.978;8.472;2022-07-23T05:26:37;100552.50;;;14.47;100.00
4858;BME280;58975;51.978;8.472;2022-07-23T05:31:33;100541.47;;;14.59;100.00
4858;BME280;58975;51.978;8.472;2022-07-23T05:36:31;100505.84;;;14.40;100.00
4858;BME280;58975;51.978;8.472;2022-07-23T05:41:27;100525.88;;;14.45;100.00
4858;BME280;58975;51.978;8.472;2022-07-23T05:46:24;100522.47;;;14.53;100.00
4858;BME280;58975;51.978;8.472;2022-07-23T05:51:21;100509.75;;;14.64;100.00
4858;BME280;58975;51.978;8.472;2022-07-23T05:56:18;100510.16;;;14.97;100.00
4858;BME280;58975;51.978;8.472;2022-07-23T06:01:15;100515.34;;;15.26;100.00
4858;BME280;58975;51.978;8.472;2022-07-23T06:06:12;100503.47;;;15.55;100.00
4858;BME280;58975;51.978;8.472;2022-07-23T06:11:08;100493.25;;;15.77;100.00
4858;BME280;58975;51.978;8.472;2022-07-23T06:16:04;100482.84;;;15.91;100.00
4858;BME280;58975;51.978;8.472;2022-07-23T06:21:01;100488.81;;;16.03;100.00
4858;BME280;58975;51.978;8.472;2022-07-23T06:26:17;100490.44;;;16.22;100.00
4858;BME280;58975;51.978;8.472;2022-07-23T06:31:14;100494.38;;;16.09;100.00
4858;BME280;58975;51.978;8.472;2022-07-23T06:36:10;100508.72;;;16.18;100.00
4858;BME280;58975;51.978;8.472;2022-07-23T06:41:07;100516.97;;;16.42;100.00
4858;BME280;58975;51.978;8.472;2022-07-23T06:46:04;100513.06;;;16.63;100.00
4858;BME280;58975;51.978;8.472;2022-07-23T06:51:01;100522.53;;;16.75;100.00
4858;BME280;58975;51.978;8.472;2022-07-23T06:55:58;100535.59;;;16.62;100.00
4858;BME280;58975;51.978;8.472;2022-07-23T07:00:54;100546.63;;;16.59;100.00
4858;BME280;58975;51.978;8.472;2022-07-23T07:05:53;100530.38;;;16.60;100.00
4858;BME280;58975;51.978;8.472;2022-07-23T07:10:49;100536.25;;;16.64;100.00
4858;BME280;58975;51.978;8.472;2022-07-23T07:15:45;100544.22;;;16.73;100.00
4858;BME280;58975;51.978;8.472;2022-07-23T07:20:42;100549.16;;;16.86;100.00
4858;BME280;58975;51.978;8.472;2022-07-23T07:25:38;100553.88;;;17.26;100.00
4858;BME280;58975;51.978;8.472;2022-07-23T07:30:35;100561.84;;;17.01;100.00
4858;BME280;58975;51.978;8.472;2022-07-23T07:35:31;100582.66;;;16.91;100.00
4858;BME280;58975;51.978;8.472;2022-07-23T07:40:28;100576.44;;;16.91;100.00
4858;BME280;58975;51.978;8.472;2022-07-23T07:45:30;100575.75;;;16.63;100.00
4858;BME280;58975;51.978;8.472;2022-07-23T07:50:26;100580.72;;;17.10;100.00
4858;BME280;58975;51.978;8.472;2022-07-23T07:55:23;100580.97;;;17.24;100.00
4858;BME280;58975;51.978;8.472;2022-07-23T08:00:19;100601.06;;;17.96;100.00
4858;BME280;58975;51.978;8.472;2022-07-23T08:05:24;100611.81;;;17.88;100.00
4858;BME280;58975;51.978;8.472;2022-07-23T08:10:24;100606.06;;;17.25;100.00
4858;BME280;58975;51.978;8.472;2022-07-23T08:15:22;100611.09;;;17.62;100.00
4858;BME280;58975;51.978;8.472;2022-07-23T08:20:20;100623.31;;;18.06;100.00
4858;BME280;58975;51.978;8.472;2022-07-23T08:25:26;100635.75;;;17.91;100.00
4858;BME280;58975;51.978;8.472;2022-07-23T08:30:23;100631.47;;;17.72;100.00
4858;BME280;58975;51.978;8.472;2022-07-23T08:35:39;100618.41;;;17.93;100.00
4858;BME280;58975;51.978;8.472;2022-07-23T08:40:42;100631.59;;;18.13;100.00
4858;BME280;58975;51.978;8.472;2022-07-23T08:45:42;100639.25;;;19.29;100.00
4858;BME280;58975;51.978;8.472;2022-07-23T08:50:42;100633.47;;;18.93;100.00
4858;BME280;58975;51.978;8.472;2022-07-23T08:55:40;100635.19;;;18.62;100.00
4858;BME280;58975;51.978;8.472;2022-07-23T09:00:39;100642.53;;;18.19;100.00
4858;BME280;58975;51.978;8.472;2022-07-23T09:05:36;100645.75;;;18.39;100.00
4858;BME280;58975;51.978;8.472;2022-07-23T09:10:45;100656.31;;;19.29;100.00
4858;BME280;58975;51.978;8.472;2022-07-23T09:15:50;100663.38;;;19.38;100.00
4858;BME280;58975;51.978;8.472;2022-07-23T09:20:49;100662.63;;;19.61;100.00
4858;BME280;58975;51.978;8.472;2022-07-23T09:25:45;100657.69;;;19.17;100.00
4858;BME280;58975;51.978;8.472;2022-07-23T09:30:42;100659.41;;;19.02;100.00
4858;BME280;58975;51.978;8.472;2022-07-23T09:35:53;100658.75;;;19.63;100.00
4858;BME280;58975;51.978;8.472;2022-07-23T09:41:09;100667.19;;;19.60;100.00
4858;BME280;58975;51.978;8.472;2022-07-23T09:46:23;100663.38;;;19.38;100.00
4858;BME280;58975;51.978;8.472;2022-07-23T09:51:20;100667.81;;;18.18;100.00
4858;BME280;58975;51.978;8.472;2022-07-23T09:56:30;100661.94;;;18.23;100.00
4858;BME280;58975;51.978;8.472;2022-07-23T10:01:27;100665.44;;;19.28;100.00
4858;BME280;58975;51.978;8.472;2022-07-23T10:06:25;100665.16;;;20.01;100.00
4858;BME280;58975;51.978;8.472;2022-07-23T10:11:22;100675.63;;;20.58;100.00
4858;BME280;58975;51.978;8.472;2022-07-23T10:16:19;100677.91;;;19.84;100.00
4858;BME280;58975;51.978;8.472;2022-07-23T10:21:44;100679.13;;;19.19;100.00
4858;BME280;58975;51.978;8.472;2022-07-23T10:26:51;100681.69;;;18.96;100.00
4858;BME280;58975;51.978;8.472;2022-07-23T10:31:58;100671.03;;;20.36;100.00
4858;BME280;58975;51.978;8.472;2022-07-23T10:37:07;100667.59;;;21.02;100.00
4858;BME280;58975;51.978;8.472;2022-07-23T10:42:12;100671.78;;;20.21;100.00
4858;BME280;58975;51.978;8.472;2022-07-23T10:47:09;100669.91;;;19.99;100.00
4858;BME280;58975;51.978;8.472;2022-07-23T10:52:26;100669.59;;;20.48;100.00
4858;BME280;58975;51.978;8.472;2022-07-23T10:57:24;100680.63;;;20.46;100.00
4858;BME280;58975;51.978;8.472;2022-07-23T11:02:22;100667.94;;;19.85;100.00
4858;BME280;58975;51.978;8.472;2022-07-23T11:07:19;100668.63;;;19.87;100.00
4858;BME280;58975;51.978;8.472;2022-07-23T11:17:20;100670.47;;;20.63;100.00
4858;BME280;58975;51.978;8.472;2022-07-23T11:22:34;100656.56;;;20.89;100.00
4858;BME280;58975;51.978;8.472;2022-07-23T11:27:45;100668.63;;;20.63;100.00
4858;BME280;58975;51.978;8.472;2022-07-23T11:32:41;100666.16;;;20.31;100.00
4858;BME280;58975;51.978;8.472;2022-07-23T11:37:40;100664.56;;;20.45;100.00
4858;BME280;58975;51.978;8.472;2022-07-23T11:42:38;100658.31;;;21.63;100.00
4858;BME280;58975;51.978;8.472;2022-07-23T11:47:35;100669.81;;;21.36;100.00
4858;BME280;58975;51.978;8.472;2022-07-23T11:52:32;100667.28;;;21.49;100.00
4858;BME280;58975;51.978;8.472;2022-07-23T11:57:33;100665.41;;;21.35;100.00
4858;BME280;58975;51.978;8.472;2022-07-23T12:02:29;100661.19;;;21.17;100.00
4858;BME280;58975;51.978;8.472;2022-07-23T12:12:35;100660.09;;;21.41;100.00
4858;BME280;58975;51.978;8.472;2022-07-23T12:17:35;100662.63;;;21.05;100.00
4858;BME280;58975;51.978;8.472;2022-07-23T12:22:40;100667.38;;;21.41;100.00
4858;BME280;58975;51.978;8.472;2022-07-23T12:27:38;100668.13;;;21.64;100.00
4858;BME280;58975;51.978;8.472;2022-07-23T12:32:43;100666.13;;;22.02;100.00
4858;BME280;58975;51.978;8.472;2022-07-23T12:37:43;100658.88;;;21.58;100.00
4858;BME280;58975;51.978;8.472;2022-07-23T12:42:42;100658.94;;;21.65;100.00
4858;BME280;58975;51.978;8.472;2022-07-23T12:47:57;100658.94;;;21.65;100.00
4858;BME280;58975;51.978;8.472;2022-07-23T12:53:05;100663.06;;;21.61;100.00
4858;BME280;58975;51.978;8.472;2022-07-23T12:58:17;100669.97;;;21.49;100.00
4858;BME280;58975;51.978;8.472;2022-07-23T13:03:37;100665.31;;;21.57;100.00
4858;BME280;58975;51.978;8.472;2022-07-23T13:08:36;100667.78;;;21.88;100.00
4858;BME280;58975;51.978;8.472;2022-07-23T13:13:34;100668.41;;;22.20;100.00
4858;BME280;58975;51.978;8.472;2022-07-23T13:18:31;100670.16;;;22.27;100.00
4858;BME280;58975;51.978;8.472;2022-07-23T13:23:28;100669.75;;;22.09;100.00
4858;BME280;58975;51.978;8.472;2022-07-23T13:28:25;100665.72;;;22.41;100.00
4858;BME280;58975;51.978;8.472;2022-07-23T13:33:24;100671.53;;;22.38;99.99
4858;BME280;58975;51.978;8.472;2022-07-23T13:38:22;100672.53;;;22.15;97.89
4858;BME280;58975;51.978;8.472;2022-07-23T13:43:22;100671.97;;;22.41;100.00
4858;BME280;58975;51.978;8.472;2022-07-23T13:48:19;100670.78;;;22.50;92.44
4858;BME280;58975;51.978;8.472;2022-07-23T13:53:21;100663.75;;;22.56;95.24
4858;BME280;58975;51.978;8.472;2022-07-23T13:58:19;100662.50;;;22.31;99.55
4858;BME280;58975;51.978;8.472;2022-07-23T14:03:20;100666.22;;;22.93;92.53
4858;BME280;58975;51.978;8.472;2022-07-23T14:08:19;100676.81;;;22.67;95.03
4858;BME280;58975;51.978;8.472;2022-07-23T14:13:17;100666.03;;;23.29;93.88
4858;BME280;58975;51.978;8.472;2022-07-23T14:18:17;100676.69;;;22.96;89.32
4858;BME280;58975;51.978;8.472;2022-07-23T14:23:13;100669.13;;;22.92;84.72
4858;BME280;58975;51.978;8.472;2022-07-23T14:28:10;100667.19;;;23.14;76.03
4858;BME280;58975;51.978;8.472;2022-07-23T14:33:08;100676.16;;;23.42;86.73
4858;BME280;58975;51.978;8.472;2022-07-23T14:38:05;100669.03;;;23.41;85.25
4858;BME280;58975;51.978;8.472;2022-07-23T14:43:01;100672.25;;;23.17;81.68
4858;BME280;58975;51.978;8.472;2022-07-23T14:47:57;100682.16;;;23.31;71.84
4858;BME280;58975;51.978;8.472;2022-07-23T14:52:54;100682.84;;;22.84;80.15
4858;BME280;58975;51.978;8.472;2022-07-23T14:57:51;100667.91;;;23.56;78.17
4858;BME280;58975;51.978;8.472;2022-07-23T15:02:48;100670.09;;;23.40;76.22
4858;BME280;58975;51.978;8.472;2022-07-23T15:07:50;100670.69;;;23.35;73.07
4858;BME280;58975;51.978;8.472;2022-07-23T15:12:47;100671.63;;;23.21;79.49
4858;BME280;58975;51.978;8.472;2022-07-23T15:17:44;100667.28;;;22.99;75.04
4858;BME280;58975;51.978;8.472;2022-07-23T15:22:40;100660.59;;;23.29;74.71
4858;BME280;58975;51.978;8.472;2022-07-23T15:27:36;100660.47;;;23.09;71.25
4858;BME280;58975;51.978;8.472;2022-07-23T15:32:33;100661.69;;;23.35;72.43
4858;BME280;58975;51.978;8.472;2022-07-23T15:37:29;100661.03;;;23.33;72.96
4858;BME280;58975;51.978;8.472;2022-07-23T15:42:26;100668.28;;;23.47;72.03
4858;BME280;58975;51.978;8.472;2022-07-23T15:47:25;100658.25;;;23.20;72.30
4858;BME280;58975;51.978;8.472;2022-07-23T15:52:21;100648.94;;;23.35;71.93
4858;BME280;58975;51.978;8.472;2022-07-23T15:57:18;100651.78;;;23.21;71.23
4858;BME280;58975;51.978;8.472;2022-07-23T16:02:16;100654.66;;;22.85;74.05
4858;BME280;58975;51.978;8.472;2022-07-23T16:07:14;100657.00;;;23.50;71.58
4858;BME280;58975;51.978;8.472;2022-07-23T16:12:11;100651.22;;;23.60;76.42
4858;BME280;58975;51.978;8.472;2022-07-23T16:17:07;100647.00;;;23.57;68.80
4858;BME280;58975;51.978;8.472;2022-07-23T16:22:04;100648.09;;;23.69;72.16
4858;BME280;58975;51.978;8.472;2022-07-23T16:27:00;100645.44;;;23.82;73.91
4858;BME280;58975;51.978;8.472;2022-07-23T16:32:02;100645.19;;;24.25;70.18
4858;BME280;58975;51.978;8.472;2022-07-23T16:36:58;100641.53;;;23.50;70.61
4858;BME280;58975;51.978;8.472;2022-07-23T16:41:55;100655.72;;;22.90;77.96
4858;BME280;58975;51.978;8.472;2022-07-23T16:46:51;100645.75;;;22.97;84.02
4858;BME280;58975;51.978;8.472;2022-07-23T16:51:48;100642.47;;;24.31;68.80
4858;BME280;58975;51.978;8.472;2022-07-23T16:56:44;100644.38;;;25.23;62.00
4858;BME280;58975;51.978;8.472;2022-07-23T17:01:40;100646.97;;;26.20;55.36
4858;BME280;58975;51.978;8.472;2022-07-23T17:06:37;100649.16;;;26.99;51.66
4858;BME280;58975;51.978;8.472;2022-07-23T17:11:34;100652.94;;;29.08;46.91
4858;BME280;58975;51.978;8.472;2022-07-23T17:16:31;100657.38;;;28.67;45.30
4858;BME280;58975;51.978;8.472;2022-07-23T17:21:28;100659.06;;;30.86;39.77
4858;BME280;58975;51.978;8.472;2022-07-23T17:26:24;100667.53;;;29.83;42.92
4858;BME280;58975;51.978;8.472;2022-07-23T17:31:20;100663.63;;;30.64;38.41
4858;BME280;58975;51.978;8.472;2022-07-23T17:36:17;100669.22;;;30.86;40.34
4858;BME280;58975;51.978;8.472;2022-07-23T17:41:14;100667.66;;;29.88;40.62
4858;BME280;58975;51.978;8.472;2022-07-23T17:46:11;100666.59;;;29.89;40.51
4858;BME280;58975;51.978;8.472;2022-07-23T17:51:08;100659.63;;;30.27;39.10
4858;BME280;58975;51.978;8.472;2022-07-23T17:56:05;100664.91;;;30.73;38.97
4858;BME280;58975;51.978;8.472;2022-07-23T18:01:03;100674.56;;;28.75;42.34
4858;BME280;58975;51.978;8.472;2022-07-23T18:05:59;100676.63;;;29.60;42.35
4858;BME280;58975;51.978;8.472;2022-07-23T18:10:56;100680.59;;;29.41;41.84
4858;BME280;58975;51.978;8.472;2022-07-23T18:15:52;100679.00;;;28.16;44.87
4858;BME280;58975;51.978;8.472;2022-07-23T18:20:49;100695.03;;;27.40;46.94
4858;BME280;58975;51.978;8.472;2022-07-23T18:25:46;100681.06;;;29.15;43.05
4858;BME280;58975;51.978;8.472;2022-07-23T18:30:43;100692.19;;;29.43;43.79
4858;BME280;58975;51.978;8.472;2022-07-23T18:35:40;100693.91;;;28.20;44.50
4858;BME280;58975;51.978;8.472;2022-07-23T18:40:36;100701.38;;;25.57;51.25
4858;BME280;58975;51.978;8.472;2022-07-23T18:45:35;100702.25;;;24.92;60.49
4858;BME280;58975;51.978;8.472;2022-07-23T18:50:32;100698.44;;;24.60;64.65
4858;BME280;58975;51.978;8.472;2022-07-23T18:55:33;100705.69;;;23.79;73.51
4858;BME280;58975;51.978;8.472;2022-07-23T19:00:32;100711.59;;;23.96;76.14
4858;BME280;58975;51.978;8.472;2022-07-23T19:05:29;100716.59;;;24.33;77.67
4858;BME280;58975;51.978;8.472;2022-07-23T19:10:25;100714.00;;;23.71;81.37
4858;BME280;58975;51.978;8.472;2022-07-23T19:15:22;100716.31;;;22.91;99.11
4858;BME280;58975;51.978;8.472;2022-07-23T19:20:18;100718.09;;;22.05;100.00
4858;BME280;58975;51.978;8.472;2022-07-23T19:25:15;100717.28;;;21.32;100.00
4858;BME280;58975;51.978;8.472;2022-07-23T19:30:12;100713.72;;;20.71;100.00
4858;BME280;58975;51.978;8.472;2022-07-23T19:35:08;100724.22;;;20.12;100.00
4858;BME280;58975;51.978;8.472;2022-07-23T19:40:06;100719.19;;;19.70;100.00
4858;BME280;58975;51.978;8.472;2022-07-23T19:45:07;100726.22;;;19.16;100.00
4858;BME280;58975;51.978;8.472;2022-07-23T19:50:04;100713.69;;;18.51;100.00
4858;BME280;58975;51.978;8.472;2022-07-23T19:55:00;100711.50;;;18.38;100.00
4858;BME280;58975;51.978;8.472;2022-07-23T19:59:57;100711.28;;;18.31;100.00
4858;BME280;58975;51.978;8.472;2022-07-23T20:04:53;100719.69;;;18.12;100.00
4858;BME280;58975;51.978;8.472;2022-07-23T20:09:49;100698.34;;;17.77;100.00
4858;BME280;58975;51.978;8.472;2022-07-23T20:14:46;100697.25;;;17.62;100.00
4858;BME280;58975;51.978;8.472;2022-07-23T20:19:42;100700.16;;;17.42;100.00
4858;BME280;58975;51.978;8.472;2022-07-23T20:24:38;100698.09;;;17.28;100.00
4858;BME280;58975;51.978;8.472;2022-07-23T20:29:35;100697.97;;;17.12;100.00
4858;BME280;58975;51.978;8.472;2022-07-23T20:34:32;100700.56;;;16.96;100.00
4858;BME280;58975;51.978;8.472;2022-07-23T20:39:29;100695.44;;;16.85;100.00
4858;BME280;58975;51.978;8.472;2022-07-23T20:44:26;100689.28;;;16.75;100.00
4858;BME280;58975;51.978;8.472;2022-07-23T20:49:22;100690.59;;;16.71;100.00
4858;BME280;58975;51.978;8.472;2022-07-23T20:54:19;100691.22;;;16.65;100.00
4858;BME280;58975;51.978;8.472;2022-07-23T20:59:15;100687.06;;;16.70;100.00
4858;BME280;58975;51.978;8.472;2022-07-23T21:04:12;100691.84;;;16.59;100.00
4858;BME280;58975;51.978;8.472;2022-07-23T21:09:08;100693.97;;;16.37;100.00
4858;BME280;58975;51.978;8.472;2022-07-23T21:14:05;100685.84;;;16.29;100.00
4858;BME280;58975;51.978;8.472;2022-07-23T21:19:02;100699.50;;;16.36;100.00
4858;BME280;58975;51.978;8.472;2022-07-23T21:23:59;100695.97;;;16.35;100.00
4858;BME280;58975;51.978;8.472;2022-07-23T21:28:55;100700.97;;;16.30;100.00
4858;BME280;58975;51.978;8.472;2022-07-23T21:33:52;100705.94;;;16.25;100.00
4858;BME280;58975;51.978;8.472;2022-07-23T21:38:48;100714.00;;;16.25;100.00
4858;BME280;58975;51.978;8.472;2022-07-23T21:43:45;100707.25;;;16.21;100.00
4858;BME280;58975;51.978;8.472;2022-07-23T21:48:41;100710.59;;;16.23;100.00
4858;BME280;58975;51.978;8.472;2022-07-23T21:53:39;100715.94;;;16.15;100.00
4858;BME280;58975;51.978;8.472;2022-07-23T21:58:35;100720.91;;;16.10;100.00
4858;BME280;58975;51.978;8.472;2022-07-23T22:03:32;100723.72;;;16.08;100.00
4858;BME280;58975;51.978;8.472;2022-07-23T22:08:28;100719.09;;;16.01;100.00
4858;BME280;58975;51.978;8.472;2022-07-23T22:13:25;100717.72;;;15.97;100.00
4858;BME280;58975;51.978;8.472;2022-07-23T22:18:21;100715.34;;;15.94;100.00
4858;BME280;58975;51.978;8.472;2022-07-23T22:23:18;100711.47;;;15.79;100.00
4858;BME280;58975;51.978;8.472;2022-07-23T22:28:14;100713.34;;;15.69;100.00
4858;BME280;58975;51.978;8.472;2022-07-23T22:33:11;100718.59;;;15.60;100.00
4858;BME280;58975;51.978;8.472;2022-07-23T22:38:07;100712.44;;;15.50;100.00
4858;BME280;58975;51.978;8.472;2022-07-23T22:43:04;100704.53;;;15.39;100.00
4858;BME280;58975;51.978;8.472;2022-07-23T22:48:00;100706.41;;;15.29;100.00
4858;BME280;58975;51.978;8.472;2022-07-23T22:52:56;100707.72;;;15.15;100.00
4858;BME280;58975;51.978;8.472;2022-07-23T22:57:53;100709.56;;;15.05;100.00
4858;BME280;58975;51.978;8.472;2022-07-23T23:02:50;100702.13;;;14.90;100.00
4858;BME280;58975;51.978;8.472;2022-07-23T23:07:47;100707.38;;;14.82;100.00
4858;BME280;58975;51.978;8.472;2022-07-23T23:12:43;100702.16;;;14.80;100.00
4858;BME280;58975;51.978;8.472;2022-07-23T23:17:40;100697.34;;;14.74;100.00
4858;BME280;58975;51.978;8.472;2022-07-23T23:22:37;100698.78;;;14.68;100.00
4858;BME280;58975;51.978;8.472;2022-07-23T23:27:34;100690.72;;;14.68;100.00
4858;BME280;58975;51.978;8.472;2022-07-23T23:32:30;100697.66;;;14.61;100.00
4858;BME280;58975;51.978;8.472;2022-07-23T23:37:26;100689.91;;;14.49;100.00
4858;BME280;58975;51.978;8.472;2022-07-23T23:42:23;100694.56;;;14.37;100.00
4858;BME280;58975;51.978;8.472;2022-07-23T23:47:19;100691.41;;;14.23;100.00
4858;BME280;58975;51.978;8.472;2022-07-23T23:52:16;100686.03;;;14.13;100.00
4858;BME280;58975;51.978;8.472;2022-07-23T23:57:12;100693.91;;;14.05;100.00
